createdAt,value
2018-10-21T00:00:52.463Z,18.30
2018-10-21T00:03:20.868Z,17.33
2018-10-21T00:05:49.297Z,15.63
2018-10-21T00:08:17.723Z,14.43
2018-10-21T00:10:46.137Z,12.60
2018-10-21T00:13:14.501Z,12.20
2018-10-21T00:15:43.005Z,13.17
2018-10-21T00:18:11.387Z,17.30
2018-10-21T00:20:39.784Z,17.77
2018-10-21T00:23:08.149Z,19.50
2018-10-21T00:25:37.312Z,15.53
2018-10-21T00:28:06.229Z,12.73
2018-10-21T00:30:34.656Z,14.87
2018-10-21T00:33:03.129Z,20.77
2018-10-21T00:35:31.489Z,17.83
2018-10-21T00:37:59.916Z,12.80
2018-10-21T00:40:28.332Z,11.40
2018-10-21T00:42:56.814Z,13.13
2018-10-21T00:45:25.234Z,15.80
2018-10-21T00:47:53.644Z,20.57
2018-10-21T00:50:22.055Z,16.03
2018-10-21T00:52:50.523Z,19.30
2018-10-21T00:55:18.935Z,16.60
2018-10-21T00:57:47.305Z,22.20
2018-10-21T01:00:15.686Z,18.37
2018-10-21T01:02:44.092Z,19.47
2018-10-21T01:05:12.472Z,15.03
2018-10-21T01:07:40.895Z,19.90
2018-10-21T01:10:11.192Z,14.93
2018-10-21T01:12:39.752Z,16.67
2018-10-21T01:15:09.618Z,12.47
2018-10-21T01:17:37.960Z,19.63
2018-10-21T01:20:08.332Z,18.20
2018-10-21T01:22:36.795Z,22.83
2018-10-21T01:25:05.440Z,18.17
2018-10-21T01:27:33.864Z,13.13
2018-10-21T01:30:02.325Z,17.50
2018-10-21T01:32:30.712Z,17.93
2018-10-21T01:34:59.131Z,22.00
2018-10-21T01:37:27.569Z,20.60
2018-10-21T01:40:59.776Z,19.27
2018-10-21T01:43:30.456Z,12.20
2018-10-21T01:45:59.337Z,19.93
2018-10-21T01:48:28.829Z,17.97
2018-10-21T01:50:57.317Z,18.67
2018-10-21T01:53:25.986Z,21.03
2018-10-21T01:55:54.345Z,23.67
2018-10-21T01:58:22.728Z,18.30
2018-10-21T02:00:51.143Z,25.20
2018-10-21T02:03:19.696Z,18.80
2018-10-21T02:05:48.423Z,22.30
2018-10-21T02:08:16.807Z,20.73
2018-10-21T02:10:45.864Z,14.00
2018-10-21T02:13:14.289Z,14.13
2018-10-21T02:15:42.664Z,16.70
2018-10-21T02:18:11.089Z,17.20
2018-10-21T02:20:39.491Z,17.37
2018-10-21T02:23:07.940Z,12.33
2018-10-21T02:25:37.264Z,16.33
2018-10-21T02:28:05.701Z,14.93
2018-10-21T02:30:34.094Z,14.27
2018-10-21T02:33:02.776Z,13.70
2018-10-21T02:35:31.130Z,16.20
2018-10-21T02:37:59.545Z,17.20
2018-10-21T02:41:39.829Z,14.50
2018-10-21T02:44:10.370Z,16.30
2018-10-21T02:46:39.658Z,13.73
2018-10-21T02:49:08.823Z,18.67
2018-10-21T02:51:37.205Z,14.13
2018-10-21T02:54:06.152Z,22.37
2018-10-21T02:56:34.607Z,17.90
2018-10-21T02:59:03.028Z,18.50
2018-10-21T03:01:31.472Z,14.87
2018-10-21T03:03:59.834Z,17.80
2018-10-21T03:06:28.342Z,16.47
2018-10-21T03:08:56.768Z,16.33
2018-10-21T03:11:25.143Z,15.93
2018-10-21T03:13:54.344Z,18.97
2018-10-21T03:16:22.783Z,14.20
2018-10-21T03:18:51.188Z,14.87
2018-10-21T03:21:19.680Z,16.83
2018-10-21T03:23:48.006Z,15.30
2018-10-21T03:26:16.440Z,15.40
2018-10-21T03:28:44.902Z,15.33
2018-10-21T03:31:13.330Z,21.67
2018-10-21T03:33:41.727Z,17.80
2018-10-21T03:36:10.158Z,19.73
2018-10-21T03:38:39.243Z,17.20
2018-10-21T03:41:07.659Z,15.30
2018-10-21T03:43:36.056Z,19.73
2018-10-21T03:46:04.537Z,14.23
2018-10-21T03:48:32.935Z,16.70
2018-10-21T03:51:01.359Z,16.70
2018-10-21T03:53:29.855Z,16.47
2018-10-21T03:55:58.269Z,21.23
2018-10-21T03:58:26.712Z,20.87
2018-10-21T04:00:55.112Z,15.33
2018-10-21T04:03:23.489Z,19.70
2018-10-21T04:05:51.900Z,18.17
2018-10-21T04:08:20.264Z,17.10
2018-10-21T04:10:48.709Z,16.50
2018-10-21T04:13:17.101Z,15.03
2018-10-21T04:15:45.545Z,17.33
2018-10-21T04:18:13.940Z,13.93
2018-10-21T04:20:42.330Z,15.60
2018-10-21T04:23:10.744Z,17.57
2018-10-21T04:25:39.869Z,16.43
2018-10-21T04:28:08.909Z,15.07
2018-10-21T04:30:38.455Z,12.90
2018-10-21T04:34:09.769Z,23.43
2018-10-21T04:36:38.075Z,19.80
2018-10-21T04:39:45.912Z,16.30
2018-10-21T04:42:14.295Z,13.77
2018-10-21T04:44:42.693Z,17.73
2018-10-21T04:47:11.230Z,14.33
2018-10-21T04:49:39.517Z,20.33
2018-10-21T04:52:08.123Z,15.37
2018-10-21T04:54:36.656Z,14.67
2018-10-21T04:57:07.091Z,20.53
2018-10-21T04:59:36.432Z,16.10
2018-10-21T05:02:04.923Z,21.27
2018-10-21T05:04:33.405Z,22.20
2018-10-21T05:07:01.788Z,15.20
2018-10-21T05:09:31.166Z,14.70
2018-10-21T05:11:59.564Z,17.67
2018-10-21T05:14:27.993Z,17.43
2018-10-21T05:16:56.413Z,18.73
2018-10-21T05:19:24.841Z,16.10
2018-10-21T05:21:53.221Z,21.63
2018-10-21T05:24:21.608Z,19.80
2018-10-21T05:26:50.139Z,18.20
2018-10-21T05:29:18.529Z,19.93
2018-10-21T05:31:46.933Z,17.23
2018-10-21T05:34:15.401Z,14.73
2018-10-21T05:36:43.779Z,24.33
2018-10-21T05:39:12.220Z,18.93
2018-10-21T05:41:41.116Z,17.03
2018-10-21T05:44:09.599Z,16.77
2018-10-21T05:46:48.977Z,20.30
2018-10-21T05:49:17.551Z,17.10
2018-10-21T05:51:47.236Z,16.37
2018-10-21T05:54:16.577Z,15.97
2018-10-21T05:56:46.237Z,15.33
2018-10-21T05:59:15.182Z,14.40
2018-10-21T06:01:44.239Z,16.50
2018-10-21T06:04:13.638Z,17.03
2018-10-21T06:06:41.932Z,13.50
2018-10-21T06:09:11.704Z,15.77
2018-10-21T06:11:40.221Z,17.10
2018-10-21T06:14:08.682Z,17.90
2018-10-21T06:16:56.809Z,18.83
2018-10-21T06:19:32.565Z,19.50
2018-10-21T06:22:01.051Z,18.47
2018-10-21T06:24:29.397Z,16.80
2018-10-21T06:26:57.814Z,28.63
2018-10-21T06:29:26.208Z,14.80
2018-10-21T06:31:54.670Z,18.80
2018-10-21T06:34:24.737Z,17.93
2018-10-21T06:36:53.315Z,14.57
2018-10-21T06:39:21.911Z,14.87
2018-10-21T06:41:50.340Z,15.63
2018-10-21T06:44:18.764Z,20.37
2018-10-21T06:46:47.165Z,13.23
2018-10-21T06:49:15.549Z,18.90
2018-10-21T06:51:43.966Z,16.20
2018-10-21T06:54:12.420Z,21.67
2018-10-21T06:56:40.902Z,22.17
2018-10-21T06:59:09.281Z,17.00
2018-10-21T07:01:37.675Z,18.50
2018-10-21T07:04:06.681Z,21.77
2018-10-21T07:06:35.053Z,19.50
2018-10-21T07:09:05.747Z,16.17
2018-10-21T07:11:34.191Z,20.70
2018-10-21T07:14:02.618Z,20.30
2018-10-21T07:16:32.652Z,16.23
2018-10-21T07:19:00.937Z,17.23
2018-10-21T07:21:29.365Z,17.57
2018-10-21T07:23:57.789Z,22.97
2018-10-21T07:26:26.295Z,18.80
2018-10-21T07:28:54.753Z,25.50
2018-10-21T07:31:23.177Z,26.90
2018-10-21T07:33:51.601Z,25.30
2018-10-21T07:36:20.044Z,24.90
2018-10-21T07:38:48.454Z,26.17
2018-10-21T07:41:16.911Z,21.53
2018-10-21T07:43:45.346Z,27.50
2018-10-21T07:46:13.845Z,25.70
2018-10-21T07:48:42.328Z,25.30
2018-10-21T07:51:10.777Z,26.73
2018-10-21T07:53:39.158Z,25.70
2018-10-21T07:56:07.519Z,31.97
2018-10-21T07:58:35.971Z,36.23
2018-10-21T08:01:04.473Z,27.63
2018-10-21T08:03:32.854Z,25.83
2018-10-21T08:06:30.791Z,31.60
2018-10-21T08:08:59.250Z,33.23
2018-10-21T08:11:27.656Z,38.33
2018-10-21T08:13:56.091Z,32.40
2018-10-21T08:16:24.516Z,34.80
2018-10-21T08:18:53.900Z,36.10
2018-10-21T08:21:22.513Z,33.27
2018-10-21T08:23:50.849Z,37.40
2018-10-21T08:26:19.349Z,40.67
2018-10-21T08:28:47.964Z,32.90
2018-10-21T08:31:16.432Z,39.27
2018-10-21T08:33:44.957Z,36.73
2018-10-21T08:36:13.385Z,33.47
2018-10-21T08:38:41.809Z,28.73
2018-10-21T08:41:10.285Z,28.90
2018-10-21T08:43:38.713Z,31.40
2018-10-21T08:46:07.251Z,31.37
2018-10-21T08:48:35.672Z,36.50
2018-10-21T08:51:04.109Z,29.23
2018-10-21T08:53:32.606Z,31.40
2018-10-21T08:56:01.073Z,29.53
2018-10-21T08:58:29.540Z,29.97
2018-10-21T09:00:58.076Z,27.63
2018-10-21T09:03:26.505Z,32.93
2018-10-21T09:05:54.953Z,32.77
2018-10-21T09:08:23.385Z,29.47
2018-10-21T09:10:51.841Z,34.53
2018-10-21T09:13:20.283Z,38.87
2018-10-21T09:15:48.722Z,39.23
2018-10-21T09:18:17.164Z,28.77
2018-10-21T09:20:45.769Z,30.70
2018-10-21T09:23:14.149Z,36.20
2018-10-21T09:25:42.894Z,40.10
2018-10-21T09:28:11.405Z,33.37
2018-10-21T09:30:39.827Z,37.30
2018-10-21T09:33:08.250Z,32.23
2018-10-21T09:35:36.690Z,33.07
2018-10-21T09:38:06.165Z,37.63
2018-10-21T09:40:34.671Z,26.03
2018-10-21T09:43:04.133Z,26.00
2018-10-21T09:45:32.528Z,35.77
2018-10-21T09:48:01.184Z,38.50
2018-10-21T09:50:29.614Z,36.93
2018-10-21T09:52:58.044Z,30.70
2018-10-21T09:55:26.476Z,38.23
2018-10-21T09:57:54.918Z,29.13
2018-10-21T10:00:28.576Z,25.47
2018-10-21T10:03:02.298Z,25.03
2018-10-21T10:05:30.770Z,23.37
2018-10-21T10:07:59.256Z,26.30
2018-10-21T10:10:27.687Z,24.60
2018-10-21T10:12:56.168Z,23.60
2018-10-21T10:15:24.546Z,31.13
2018-10-21T10:17:53.069Z,20.17
2018-10-21T10:20:21.614Z,22.77
2018-10-21T10:22:50.179Z,20.13
2018-10-21T10:25:18.778Z,24.03
2018-10-21T10:27:47.138Z,25.70
2018-10-21T10:30:15.653Z,19.83
2018-10-21T10:32:44.544Z,22.57
2018-10-21T10:35:13.964Z,19.53
2018-10-21T10:37:42.709Z,21.97
2018-10-21T10:40:12.220Z,19.50
2018-10-21T10:42:41.035Z,18.53
2018-10-21T10:45:09.549Z,20.80
2018-10-21T10:47:38.549Z,17.97
2018-10-21T10:50:10.727Z,15.30
2018-10-21T10:52:39.255Z,24.23
2018-10-21T10:55:08.198Z,14.43
2018-10-21T10:57:36.593Z,13.03
2018-10-21T11:00:05.818Z,21.43
2018-10-21T11:02:34.153Z,11.80
2018-10-21T11:05:02.612Z,17.67
2018-10-21T11:07:31.072Z,18.63
2018-10-21T11:09:59.519Z,36.77
2018-10-21T11:12:27.937Z,21.67
2018-10-21T11:14:57.040Z,18.00
2018-10-21T11:17:25.508Z,14.23
2018-10-21T11:19:53.938Z,15.97
2018-10-21T11:22:22.445Z,11.77
2018-10-21T11:24:50.868Z,12.90
2018-10-21T11:27:19.377Z,10.80
2018-10-21T11:29:49.398Z,11.53
2018-10-21T11:32:17.778Z,9.20
2018-10-21T11:34:46.256Z,10.53
2018-10-21T11:37:14.833Z,9.73
2018-10-21T11:39:43.848Z,8.87
2018-10-21T11:42:12.236Z,14.20
2018-10-21T11:44:40.649Z,9.87
2018-10-21T11:47:09.117Z,7.87
2018-10-21T11:49:37.561Z,11.63
2018-10-21T11:52:07.109Z,13.20
2018-10-21T11:54:35.489Z,10.10
2018-10-21T11:57:03.954Z,10.40
2018-10-21T11:59:32.397Z,13.77
2018-10-21T12:02:00.892Z,16.30
2018-10-21T12:04:30.220Z,11.40
2018-10-21T12:06:58.737Z,11.00
2018-10-21T12:09:27.155Z,75.90
2018-10-21T12:11:55.586Z,15.23
2018-10-21T12:14:24.031Z,19.43
2018-10-21T12:16:52.500Z,12.83
2018-10-21T12:19:20.956Z,12.10
2018-10-21T12:21:49.345Z,9.60
2018-10-21T12:24:17.776Z,12.27
2018-10-21T12:26:46.187Z,7.40
2018-10-21T12:29:14.628Z,8.67
2018-10-21T12:31:43.059Z,10.17
2018-10-21T12:34:13.950Z,8.83
2018-10-21T12:36:42.253Z,30.90
2018-10-21T12:39:11.667Z,12.13
2018-10-21T12:41:40.924Z,9.77
2018-10-21T12:44:09.393Z,11.47
2018-10-21T12:46:38.361Z,13.63
2018-10-21T12:49:07.027Z,7.90
2018-10-21T12:51:36.365Z,9.37
2018-10-21T12:54:05.378Z,9.13
2018-10-21T12:56:34.683Z,6.60
2018-10-21T12:59:03.092Z,6.33
2018-10-21T13:01:31.517Z,8.70
2018-10-21T13:04:00.014Z,6.50
2018-10-21T13:06:28.428Z,14.83
2018-10-21T13:08:56.956Z,8.23
2018-10-21T13:11:25.466Z,10.57
2018-10-21T13:13:53.936Z,9.37
2018-10-21T13:16:22.379Z,6.30
2018-10-21T13:18:50.824Z,6.57
2018-10-21T13:21:19.306Z,8.33
2018-10-21T13:23:47.752Z,5.67
2018-10-21T13:26:16.157Z,5.07
2018-10-21T13:28:44.592Z,8.40
2018-10-21T13:31:13.138Z,16.27
2018-10-21T13:33:41.494Z,7.10
2018-10-21T13:36:09.934Z,18.90
2018-10-21T13:38:38.408Z,12.10
2018-10-21T13:41:06.884Z,7.73
2018-10-21T13:43:35.373Z,6.40
2018-10-21T13:46:03.974Z,6.70
2018-10-21T13:48:32.316Z,5.23
2018-10-21T13:51:00.808Z,6.20
2018-10-21T13:53:29.239Z,4.47
2018-10-21T13:55:57.661Z,7.30
2018-10-21T13:58:26.037Z,6.80
2018-10-21T14:00:54.556Z,7.17
2018-10-21T14:03:22.875Z,7.80
2018-10-21T14:05:51.304Z,7.93
2018-10-21T14:08:19.730Z,8.67
2018-10-21T14:10:48.136Z,9.13
2018-10-21T14:13:16.630Z,13.60
2018-10-21T14:15:45.092Z,6.33
2018-10-21T14:18:13.441Z,4.63
2018-10-21T14:20:46.166Z,11.67
2018-10-21T14:23:14.600Z,6.33
2018-10-21T14:25:43.001Z,6.20
2018-10-21T14:28:11.532Z,8.60
2018-10-21T14:30:39.980Z,11.30
2018-10-21T14:33:08.461Z,10.33
2018-10-21T14:35:36.812Z,5.20
2018-10-21T14:38:05.334Z,4.10
2018-10-21T14:40:33.685Z,7.70
2018-10-21T14:43:02.100Z,5.73
2018-10-21T14:45:30.476Z,6.07
2018-10-21T14:47:59.210Z,10.73
2018-10-21T14:50:27.593Z,4.30
2018-10-21T14:52:56.018Z,6.90
2018-10-21T14:55:24.409Z,15.30
2018-10-21T14:57:52.882Z,9.63
2018-10-21T15:00:21.348Z,5.27
2018-10-21T15:02:49.787Z,6.70
2018-10-21T15:05:18.181Z,6.23
2018-10-21T15:07:47.132Z,7.23
2018-10-21T15:10:15.585Z,8.17
2018-10-21T15:12:44.032Z,6.00
2018-10-21T15:15:12.536Z,5.33
2018-10-21T15:17:40.992Z,33.90
2018-10-21T15:20:11.447Z,84.83
2018-10-21T15:22:39.861Z,10.87
2018-10-21T15:25:09.951Z,18.80
2018-10-21T15:27:38.739Z,9.33
2018-10-21T15:30:08.435Z,11.13
2018-10-21T15:32:36.909Z,11.97
2018-10-21T15:35:05.994Z,7.00
2018-10-21T15:37:34.453Z,6.63
2018-10-21T15:40:04.230Z,9.90
2018-10-21T15:42:33.625Z,11.03
2018-10-21T15:45:01.980Z,7.87
2018-10-21T15:47:30.405Z,5.33
2018-10-21T15:49:59.781Z,12.27
2018-10-21T15:52:28.239Z,8.57
2018-10-21T15:54:56.641Z,16.93
2018-10-21T15:57:25.775Z,13.57
2018-10-21T15:59:54.192Z,16.60
2018-10-21T16:02:22.721Z,13.93
2018-10-21T16:04:51.168Z,15.43
2018-10-21T16:07:19.585Z,10.83
2018-10-21T16:09:48.085Z,13.43
2018-10-21T16:12:16.547Z,36.30
2018-10-21T16:14:44.962Z,23.73
2018-10-21T16:17:13.382Z,13.70
2018-10-21T16:19:41.819Z,5.50
2018-10-21T16:22:10.222Z,19.37
2018-10-21T16:24:38.648Z,13.33
2018-10-21T16:27:07.125Z,14.90
2018-10-21T16:29:35.590Z,18.50
2018-10-21T16:32:04.191Z,21.77
2018-10-21T16:34:32.487Z,22.87
2018-10-21T16:37:00.912Z,16.90
2018-10-21T16:39:29.328Z,11.80
2018-10-21T16:41:57.784Z,23.07
2018-10-21T16:44:26.175Z,16.63
2018-10-21T16:46:54.660Z,129.87
2018-10-21T16:49:23.116Z,76.23
2018-10-21T16:51:51.599Z,66.43
2018-10-21T16:54:20.072Z,35.43
2018-10-21T16:56:48.528Z,17.27
2018-10-21T16:59:17.011Z,9.33
2018-10-21T17:01:45.394Z,54.83
2018-10-21T17:04:14.934Z,8.13
2018-10-21T17:06:43.321Z,8.80
2018-10-21T17:09:13.899Z,7.80
2018-10-21T17:11:42.573Z,6.63
2018-10-21T17:14:11.032Z,8.10
2018-10-21T17:16:39.568Z,7.43
2018-10-21T17:19:08.136Z,14.20
2018-10-21T17:21:36.605Z,8.53
2018-10-21T17:24:05.053Z,14.37
2018-10-21T17:26:33.484Z,3.53
2018-10-21T17:29:01.945Z,5.70
2018-10-21T17:31:30.332Z,8.50
2018-10-21T17:33:58.747Z,4.93
2018-10-21T17:36:27.167Z,15.13
2018-10-21T17:38:55.568Z,8.03
2018-10-21T17:41:23.989Z,7.73
2018-10-21T17:43:52.418Z,6.07
2018-10-21T17:46:20.960Z,6.27
2018-10-21T17:48:49.422Z,6.20
2018-10-21T17:51:17.938Z,10.53
2018-10-21T17:53:46.421Z,6.03
2018-10-21T17:56:14.926Z,8.40
2018-10-21T17:58:43.341Z,8.77
2018-10-21T18:01:18.172Z,12.90
2018-10-21T18:03:48.195Z,4.57
2018-10-21T18:06:18.720Z,16.33
2018-10-21T18:08:47.164Z,5.70
2018-10-21T18:11:17.404Z,5.50
2018-10-21T18:13:49.362Z,6.13
2018-10-21T18:16:19.243Z,9.13
2018-10-21T18:21:29.183Z,6.37
2018-10-21T18:23:57.737Z,8.47
2018-10-21T18:26:26.235Z,6.50
2018-10-21T18:28:54.722Z,7.13
2018-10-21T18:31:23.285Z,8.07
2018-10-21T18:33:51.762Z,8.07
2018-10-21T18:36:20.222Z,4.73
2018-10-21T18:38:48.736Z,4.23
2018-10-21T18:41:17.342Z,4.80
2018-10-21T18:43:45.783Z,9.53
2018-10-21T18:46:14.264Z,6.07
2018-10-21T18:48:42.770Z,6.03
2018-10-21T18:51:11.206Z,5.80
2018-10-21T18:53:40.615Z,4.43
2018-10-21T18:56:09.079Z,6.70
2018-10-21T18:58:37.612Z,6.57
2018-10-21T19:01:06.084Z,10.37
2018-10-21T19:03:34.645Z,6.73
2018-10-21T19:06:03.201Z,7.50
2018-10-21T19:08:31.669Z,7.03
2018-10-21T19:11:00.133Z,20.00
2018-10-21T19:13:28.690Z,58.60
2018-10-21T19:15:57.146Z,50.43
2018-10-21T19:18:25.633Z,22.10
2018-10-21T19:20:54.177Z,21.17
2018-10-21T19:23:22.626Z,7.67
2018-10-21T19:25:51.043Z,4.63
2018-10-21T19:28:19.603Z,9.20
2018-10-21T19:30:48.063Z,45.53
2018-10-21T19:33:16.528Z,21.67
2018-10-21T19:35:45.013Z,9.60
2018-10-21T19:38:13.479Z,8.13
2018-10-21T19:40:41.943Z,11.97
2018-10-21T19:43:10.472Z,9.07
2018-10-21T19:45:38.881Z,8.37
2018-10-21T19:48:07.359Z,10.47
2018-10-21T19:50:35.812Z,9.40
2018-10-21T19:53:04.324Z,5.43
2018-10-21T19:55:32.824Z,9.10
2018-10-21T19:58:01.338Z,6.63
2018-10-21T20:00:29.749Z,11.10
2018-10-21T20:02:58.208Z,15.63
2018-10-21T20:05:26.722Z,9.07
2018-10-21T20:07:55.180Z,10.43
2018-10-21T20:10:23.616Z,10.70
2018-10-21T20:12:52.125Z,8.63
2018-10-21T20:15:20.628Z,8.00
2018-10-21T20:17:49.054Z,10.30
2018-10-21T20:20:17.542Z,7.93
2018-10-21T20:22:46.600Z,10.50
2018-10-21T20:25:15.252Z,8.60
2018-10-21T20:27:43.685Z,11.33
2018-10-21T20:30:13.482Z,10.83
2018-10-21T20:32:42.396Z,13.63
2018-10-21T20:35:11.844Z,14.73
2018-10-21T20:37:40.410Z,20.87
2018-10-21T20:40:09.666Z,14.37
2018-10-21T20:42:38.229Z,9.43
2018-10-21T20:45:08.177Z,10.30
2018-10-21T20:47:36.762Z,14.20
2018-10-21T20:50:05.829Z,11.80
2018-10-21T20:52:34.321Z,11.93
2018-10-21T20:55:02.784Z,10.30
2018-10-21T20:57:31.194Z,9.77
2018-10-21T20:59:59.617Z,7.80
2018-10-21T21:02:30.394Z,9.80
2018-10-21T21:04:58.841Z,9.70
2018-10-21T21:07:27.336Z,15.13
2018-10-21T21:09:56.511Z,14.67
2018-10-21T21:12:24.907Z,19.43
2018-10-21T21:14:53.413Z,23.93
2018-10-21T21:17:21.844Z,24.30
2018-10-21T21:19:50.320Z,22.83
2018-10-21T21:22:18.864Z,15.20
2018-10-21T21:24:47.205Z,14.80
2018-10-21T21:27:15.648Z,9.07
2018-10-21T21:29:44.131Z,10.23
2018-10-21T21:32:21.080Z,11.77
2018-10-21T21:34:49.526Z,8.40
2018-10-21T21:37:17.946Z,9.10
2018-10-21T21:39:46.371Z,9.30
2018-10-21T21:42:14.783Z,7.23
2018-10-21T21:44:43.233Z,10.60
2018-10-21T21:47:11.752Z,7.00
2018-10-21T21:49:40.169Z,12.73
2018-10-21T21:52:11.002Z,12.07
2018-10-21T21:54:40.408Z,9.20
2018-10-21T21:57:08.921Z,7.93
2018-10-21T21:59:37.339Z,9.73
2018-10-21T22:02:05.763Z,12.23
2018-10-21T22:04:34.192Z,8.70
2018-10-21T22:07:02.641Z,8.33
2018-10-21T22:09:31.107Z,10.80
2018-10-21T22:11:59.608Z,10.10
2018-10-21T22:17:12.989Z,11.57
2018-10-21T22:19:41.400Z,10.80
2018-10-21T22:22:16.657Z,10.43
2018-10-21T22:27:30.719Z,10.97
2018-10-21T22:29:59.213Z,9.17
2018-10-21T22:32:27.686Z,11.57
2018-10-21T22:34:56.159Z,6.90
2018-10-21T22:37:24.552Z,9.53
2018-10-21T22:39:53.865Z,7.83
2018-10-21T22:42:23.038Z,8.33
2018-10-21T22:44:52.104Z,10.17
2018-10-21T22:50:03.621Z,12.53
2018-10-21T22:52:33.477Z,9.57
2018-10-21T22:55:01.927Z,10.07
2018-10-21T22:57:30.346Z,8.70
2018-10-21T22:59:58.792Z,9.67
2018-10-21T23:02:27.260Z,8.33
2018-10-21T23:04:55.710Z,13.37
2018-10-21T23:07:24.160Z,9.13
2018-10-21T23:09:53.130Z,10.60
2018-10-21T23:12:21.570Z,8.90
2018-10-21T23:14:50.098Z,11.03
2018-10-21T23:17:18.552Z,12.90
2018-10-21T23:19:48.446Z,11.03
2018-10-21T23:22:17.030Z,10.53
2018-10-21T23:24:45.400Z,9.10
2018-10-21T23:27:14.324Z,8.87
2018-10-21T23:29:43.711Z,10.20
2018-10-21T23:32:12.352Z,7.57
2018-10-21T23:34:40.841Z,8.93
2018-10-21T23:37:09.253Z,7.33
2018-10-21T23:39:37.723Z,8.10
2018-10-21T23:42:06.219Z,9.93
2018-10-21T23:44:34.628Z,15.67
2018-10-21T23:47:03.132Z,10.90
2018-10-21T23:49:31.588Z,8.50
2018-10-21T23:52:00.072Z,12.70
2018-10-21T23:54:28.444Z,13.33
2018-10-21T23:56:56.899Z,9.70
2018-10-21T23:59:25.376Z,10.53
